Time;durP1;ratioP1;P1;durP2;ratioP2;P2;SDS_P1;SDS_P2;PMS_P1;PMS_P2;Temp;Humidity;BMP_temperature;BMP_pressure;BME280_temperature;BME280_humidity;BME280_pressure;Samples;Min_cycle;Max_cycle;Signal;HPM_P1;HPM_P2
2023/09/14 00:00:50;;;;;;;3.00;2.43;;;;;;;;;;5007106;28;20638;-51
2023/09/14 00:03:16;;;;;;;2.60;2.27;;;;;;;;;;5003138;28;20599;-51
2023/09/14 00:05:43;;;;;;;3.77;2.40;;;;;;;;;;5007905;28;20229;-51
2023/09/14 00:08:10;;;;;;;3.07;2.57;;;;;;;;;;5006187;28;20324;-51
2023/09/14 00:10:36;;;;;;;3.00;2.50;;;;;;;;;;5006540;28;20256;-51
2023/09/14 00:13:03;;;;;;;3.53;2.27;;;;;;;;;;5004659;28;20179;-52
2023/09/14 00:15:30;;;;;;;2.63;2.43;;;;;;;;;;4979247;28;20179;-51
2023/09/14 00:17:56;;;;;;;4.07;2.40;;;;;;;;;;5001795;28;20178;-52
2023/09/14 00:20:24;;;;;;;2.50;2.30;;;;;;;;;;5007870;28;20183;-51
2023/09/14 00:22:51;;;;;;;2.97;2.57;;;;;;;;;;5002268;28;20529;-51
2023/09/14 00:25:18;;;;;;;3.47;2.13;;;;;;;;;;5006088;28;20186;-51
2023/09/14 00:27:45;;;;;;;2.90;2.70;;;;;;;;;;5002209;28;20230;-51
2023/09/14 00:30:11;;;;;;;2.47;2.37;;;;;;;;;;5007784;28;20617;-51
2023/09/14 00:32:40;;;;;;;4.40;2.70;;;;;;;;;;5006731;28;20205;-51
2023/09/14 00:35:10;;;;;;;2.70;2.50;;;;;;;;;;5006815;28;20265;-51
2023/09/14 00:37:36;;;;;;;3.20;2.30;;;;;;;;;;5005207;28;20269;-50
2023/09/14 00:40:06;;;;;;;3.30;2.40;;;;;;;;;;5006814;28;20175;-51
2023/09/14 00:42:42;;;;;;;2.83;2.63;;;;;;;;;;5002495;28;20347;-49
2023/09/14 00:45:10;;;;;;;2.83;2.63;;;;;;;;;;4982613;28;20196;-51
2023/09/14 00:47:38;;;;;;;2.77;2.50;;;;;;;;;;4982810;28;20278;-50
2023/09/14 00:50:04;;;;;;;3.60;2.60;;;;;;;;;;5005002;28;20212;-51
2023/09/14 00:52:32;;;;;;;4.90;2.70;;;;;;;;;;5005871;28;20225;-51
2023/09/14 00:54:58;;;;;;;2.70;2.50;;;;;;;;;;5006859;28;20622;-51
2023/09/14 00:57:24;;;;;;;3.90;2.57;;;;;;;;;;5007149;28;20174;-51
2023/09/14 00:59:51;;;;;;;2.60;2.40;;;;;;;;;;5007035;28;20268;-51
2023/09/14 01:02:17;;;;;;;2.90;2.70;;;;;;;;;;5006704;28;20189;-51
2023/09/14 01:04:44;;;;;;;2.47;2.07;;;;;;;;;;5005501;28;20598;-51
2023/09/14 01:07:10;;;;;;;2.63;2.40;;;;;;;;;;5005381;28;20233;-50
2023/09/14 01:09:36;;;;;;;2.73;2.50;;;;;;;;;;5003214;28;20268;-51
2023/09/14 01:12:03;;;;;;;2.93;2.70;;;;;;;;;;5002450;28;20192;-51
2023/09/14 01:14:37;;;;;;;3.30;2.83;;;;;;;;;;5000501;28;20185;-50
2023/09/14 01:17:09;;;;;;;3.00;2.73;;;;;;;;;;5006593;28;20579;-51
2023/09/14 01:19:40;;;;;;;3.27;2.93;;;;;;;;;;5005371;28;20184;-51
2023/09/14 01:22:06;;;;;;;2.50;2.30;;;;;;;;;;5004388;28;20650;-51
2023/09/14 01:24:46;;;;;;;3.10;2.80;;;;;;;;;;4971851;28;20545;-49
2023/09/14 01:27:13;;;;;;;4.20;2.37;;;;;;;;;;5003027;28;20190;-51
2023/09/14 01:29:40;;;;;;;2.67;2.47;;;;;;;;;;4980213;28;20218;-51
2023/09/14 01:32:06;;;;;;;3.27;2.57;;;;;;;;;;4977164;28;20634;-50
2023/09/14 01:34:33;;;;;;;2.93;2.60;;;;;;;;;;4984828;28;20176;-50
2023/09/14 01:37:00;;;;;;;3.03;2.37;;;;;;;;;;4986603;28;20191;-51
2023/09/14 01:39:28;;;;;;;3.53;2.30;;;;;;;;;;4977826;28;20666;-51
2023/09/14 01:41:55;;;;;;;3.10;2.80;;;;;;;;;;4960267;28;20187;-51
2023/09/14 01:44:25;;;;;;;3.43;2.53;;;;;;;;;;4986086;28;20191;-51
2023/09/14 01:46:52;;;;;;;2.60;2.40;;;;;;;;;;4983209;28;20214;-51
2023/09/14 01:49:18;;;;;;;4.20;2.33;;;;;;;;;;4986156;28;20184;-51
2023/09/14 01:51:44;;;;;;;2.90;2.70;;;;;;;;;;4979135;28;20230;-51
2023/09/14 01:54:11;;;;;;;5.37;2.70;;;;;;;;;;4984019;28;20199;-51
2023/09/14 01:56:37;;;;;;;3.07;2.77;;;;;;;;;;4983807;28;20215;-51
2023/09/14 01:59:03;;;;;;;2.70;2.50;;;;;;;;;;4980309;28;20183;-51
2023/09/14 02:01:30;;;;;;;2.83;2.30;;;;;;;;;;4984023;28;20325;-51
2023/09/14 02:03:56;;;;;;;3.17;2.67;;;;;;;;;;4989526;28;20688;-52
2023/09/14 02:06:23;;;;;;;3.10;2.70;;;;;;;;;;4988595;28;20191;-52
2023/09/14 02:08:49;;;;;;;3.27;2.40;;;;;;;;;;4987164;28;20253;-51
2023/09/14 02:11:16;;;;;;;2.83;2.10;;;;;;;;;;4987881;28;20199;-51
2023/09/14 02:13:42;;;;;;;2.50;2.30;;;;;;;;;;4986813;28;20803;-52
2023/09/14 02:16:09;;;;;;;3.03;2.83;;;;;;;;;;4985195;28;20314;-51
2023/09/14 02:18:36;;;;;;;2.80;2.50;;;;;;;;;;4987594;28;20185;-51
2023/09/14 02:21:02;;;;;;;3.00;2.63;;;;;;;;;;4988298;28;20220;-51
2023/09/14 02:23:29;;;;;;;2.87;2.50;;;;;;;;;;4984703;28;20501;-51
2023/09/14 02:25:55;;;;;;;3.37;2.47;;;;;;;;;;4987707;28;20902;-50
2023/09/14 02:28:21;;;;;;;3.03;2.73;;;;;;;;;;4998064;28;20230;-51
2023/09/14 02:30:48;;;;;;;3.10;2.30;;;;;;;;;;5008455;28;20642;-51
2023/09/14 02:33:14;;;;;;;3.40;2.20;;;;;;;;;;5005594;28;20202;-52
2023/09/14 02:35:41;;;;;;;3.60;2.60;;;;;;;;;;5007993;28;20625;-51
2023/09/14 02:38:08;;;;;;;2.97;2.37;;;;;;;;;;5007928;28;20253;-52
2023/09/14 02:40:36;;;;;;;4.07;2.70;;;;;;;;;;4991482;28;20248;-51
2023/09/14 02:43:03;;;;;;;3.90;2.50;;;;;;;;;;5008828;28;20175;-51
2023/09/14 02:45:29;;;;;;;3.17;2.60;;;;;;;;;;4992338;28;20264;-51
2023/09/14 02:47:55;;;;;;;2.50;2.30;;;;;;;;;;5007652;28;20195;-52
2023/09/14 02:50:21;;;;;;;3.47;2.30;;;;;;;;;;5006803;28;20183;-50
2023/09/14 02:52:47;;;;;;;3.00;2.43;;;;;;;;;;5006638;28;20489;-50
2023/09/14 02:55:14;;;;;;;3.63;2.20;;;;;;;;;;5009454;28;20568;-51
2023/09/14 02:57:40;;;;;;;4.60;2.60;;;;;;;;;;5009427;28;20376;-51
2023/09/14 03:00:07;;;;;;;2.37;2.20;;;;;;;;;;5009427;28;20509;-51
2023/09/14 03:02:34;;;;;;;2.73;2.53;;;;;;;;;;5007305;28;20230;-50
2023/09/14 03:05:00;;;;;;;3.73;2.27;;;;;;;;;;5008990;28;20190;-52
2023/09/14 03:07:27;;;;;;;2.40;2.20;;;;;;;;;;5007715;28;20216;-51
2023/09/14 03:09:53;;;;;;;6.10;2.50;;;;;;;;;;5008738;28;20995;-50
2023/09/14 03:12:19;;;;;;;3.10;2.77;;;;;;;;;;4999061;28;20210;-51
2023/09/14 03:14:46;;;;;;;4.70;2.60;;;;;;;;;;4999386;28;20187;-51
2023/09/14 03:17:12;;;;;;;3.77;3.57;;;;;;;;;;5010048;28;20174;-51
2023/09/14 03:19:38;;;;;;;3.10;2.60;;;;;;;;;;5004500;28;20258;-51
2023/09/14 03:22:06;;;;;;;3.20;2.40;;;;;;;;;;5006540;28;20241;-51
2023/09/14 03:24:32;;;;;;;2.97;2.20;;;;;;;;;;4997464;28;20189;-51
2023/09/14 03:26:59;;;;;;;2.37;2.17;;;;;;;;;;5007331;28;20179;-51
2023/09/14 03:29:25;;;;;;;2.87;2.20;;;;;;;;;;4992127;28;20294;-51
2023/09/14 03:31:52;;;;;;;4.73;4.33;;;;;;;;;;4987889;28;20276;-51
2023/09/14 03:34:19;;;;;;;1.97;1.80;;;;;;;;;;5009597;28;20301;-51
2023/09/14 03:36:45;;;;;;;3.57;2.40;;;;;;;;;;5009188;28;20254;-51
2023/09/14 03:39:12;;;;;;;2.60;2.40;;;;;;;;;;5007252;28;20240;-50
2023/09/14 03:41:39;;;;;;;2.60;2.40;;;;;;;;;;5008573;28;20193;-50
2023/09/14 03:44:05;;;;;;;2.93;2.40;;;;;;;;;;5005260;28;20178;-50
2023/09/14 03:46:31;;;;;;;2.50;2.30;;;;;;;;;;5007305;28;21625;-50
2023/09/14 03:48:58;;;;;;;5.07;2.40;;;;;;;;;;5007084;28;20265;-50
2023/09/14 03:51:24;;;;;;;3.30;2.70;;;;;;;;;;5007370;28;20214;-50
2023/09/14 03:53:50;;;;;;;2.40;2.20;;;;;;;;;;5005416;28;20205;-50
2023/09/14 03:56:16;;;;;;;3.73;2.80;;;;;;;;;;5007649;28;20197;-50
2023/09/14 03:58:43;;;;;;;2.40;2.20;;;;;;;;;;5005373;28;20197;-50
2023/09/14 04:01:11;;;;;;;2.97;2.73;;;;;;;;;;5008433;28;20182;-50
2023/09/14 04:03:38;;;;;;;2.10;1.90;;;;;;;;;;5006982;28;20335;-50
2023/09/14 04:06:04;;;;;;;2.33;2.13;;;;;;;;;;4988821;28;20308;-51
2023/09/14 04:08:30;;;;;;;2.60;2.13;;;;;;;;;;5006395;28;20174;-50
2023/09/14 04:10:56;;;;;;;2.40;2.10;;;;;;;;;;5005039;28;20256;-50
2023/09/14 04:13:29;;;;;;;2.00;1.80;;;;;;;;;;5006789;28;20633;-50
2023/09/14 04:15:56;;;;;;;2.80;1.93;;;;;;;;;;5008099;28;20336;-50
2023/09/14 04:18:22;;;;;;;4.53;2.53;;;;;;;;;;5007240;28;20662;-51
2023/09/14 04:20:48;;;;;;;2.50;2.30;;;;;;;;;;5006170;28;20234;-50
2023/09/14 04:23:14;;;;;;;3.50;3.20;;;;;;;;;;5006237;28;20178;-50
2023/09/14 04:25:46;;;;;;;3.20;2.23;;;;;;;;;;5006112;28;20225;-50
2023/09/14 04:28:16;;;;;;;3.40;2.27;;;;;;;;;;5006956;28;20218;-50
2023/09/14 04:30:43;;;;;;;2.33;2.13;;;;;;;;;;5006441;28;20352;-50
2023/09/14 04:33:10;;;;;;;3.50;3.20;;;;;;;;;;5007451;28;20179;-50
2023/09/14 04:35:36;;;;;;;2.77;2.30;;;;;;;;;;4988477;28;20535;-50
2023/09/14 04:38:02;;;;;;;2.37;2.17;;;;;;;;;;4988601;28;20271;-50
2023/09/14 04:40:28;;;;;;;3.07;2.17;;;;;;;;;;5007358;28;20189;-50
2023/09/14 04:42:55;;;;;;;3.10;2.30;;;;;;;;;;5001525;28;20187;-50
2023/09/14 04:45:21;;;;;;;2.97;2.23;;;;;;;;;;5006526;28;20194;-50
2023/09/14 04:47:47;;;;;;;2.50;2.20;;;;;;;;;;5006500;28;20195;-50
2023/09/14 04:50:14;;;;;;;3.07;2.87;;;;;;;;;;5003476;28;20250;-49
2023/09/14 04:52:40;;;;;;;2.60;2.40;;;;;;;;;;5002328;28;20222;-50
2023/09/14 04:55:07;;;;;;;2.30;2.10;;;;;;;;;;5000125;28;20171;-50
2023/09/14 04:57:33;;;;;;;3.27;2.10;;;;;;;;;;5002723;28;20173;-50
2023/09/14 04:59:59;;;;;;;2.57;2.07;;;;;;;;;;5006192;28;20191;-49
2023/09/14 05:02:27;;;;;;;2.60;2.40;;;;;;;;;;5005885;28;20214;-50
2023/09/14 05:04:54;;;;;;;2.83;1.70;;;;;;;;;;4987083;28;20179;-49
2023/09/14 05:07:21;;;;;;;2.27;2.17;;;;;;;;;;5000845;28;20688;-50
2023/09/14 05:09:50;;;;;;;2.47;2.20;;;;;;;;;;5004958;28;20554;-49
2023/09/14 05:12:17;;;;;;;3.30;2.40;;;;;;;;;;4995792;28;20205;-51
2023/09/14 05:14:43;;;;;;;3.10;2.30;;;;;;;;;;5007204;28;20270;-49
2023/09/14 05:17:09;;;;;;;2.63;2.37;;;;;;;;;;5007568;28;20175;-49
2023/09/14 05:19:35;;;;;;;3.10;2.50;;;;;;;;;;5007802;28;20176;-49
2023/09/14 05:22:02;;;;;;;2.57;2.17;;;;;;;;;;5002519;28;20186;-49
2023/09/14 05:24:28;;;;;;;4.73;2.23;;;;;;;;;;5000872;28;20194;-50
2023/09/14 05:26:55;;;;;;;2.40;2.20;;;;;;;;;;5002264;28;20427;-49
2023/09/14 05:29:21;;;;;;;5.67;2.67;;;;;;;;;;5001921;28;20659;-48
2023/09/14 05:31:47;;;;;;;3.90;3.20;;;;;;;;;;5006402;28;20329;-48
2023/09/14 05:34:13;;;;;;;6.00;2.63;;;;;;;;;;5003535;28;20237;-49
2023/09/14 05:36:39;;;;;;;4.57;3.17;;;;;;;;;;5008706;28;20268;-49
2023/09/14 05:39:07;;;;;;;3.53;3.03;;;;;;;;;;5007912;28;20170;-48
2023/09/14 05:41:33;;;;;;;7.40;2.90;;;;;;;;;;5009802;28;20187;-48
2023/09/14 05:43:59;;;;;;;5.13;3.00;;;;;;;;;;5010726;28;20191;-49
2023/09/14 05:46:26;;;;;;;5.20;2.60;;;;;;;;;;5011008;28;20235;-48
2023/09/14 05:48:52;;;;;;;6.30;2.73;;;;;;;;;;5010705;28;20258;-47
2023/09/14 05:51:18;;;;;;;3.30;3.00;;;;;;;;;;5009343;28;20277;-48
2023/09/14 05:53:44;;;;;;;8.67;3.23;;;;;;;;;;5009883;28;20498;-48
2023/09/14 05:56:11;;;;;;;4.53;3.13;;;;;;;;;;5010413;28;20232;-49
2023/09/14 05:58:37;;;;;;;5.50;3.50;;;;;;;;;;5009790;28;20179;-48
2023/09/14 06:01:04;;;;;;;4.37;3.23;;;;;;;;;;5010535;28;20181;-48
2023/09/14 06:03:30;;;;;;;3.80;2.93;;;;;;;;;;5009903;28;20174;-48
2023/09/14 06:05:57;;;;;;;6.83;3.20;;;;;;;;;;5010319;28;20647;-48
2023/09/14 06:08:23;;;;;;;6.23;3.60;;;;;;;;;;5007952;28;20178;-49
2023/09/14 06:10:49;;;;;;;5.70;4.00;;;;;;;;;;5010368;28;20179;-49
2023/09/14 06:13:17;;;;;;;6.37;3.27;;;;;;;;;;5008397;28;20178;-48
2023/09/14 06:15:43;;;;;;;5.10;2.90;;;;;;;;;;5009486;28;20210;-48
2023/09/14 06:18:09;;;;;;;6.13;3.00;;;;;;;;;;5009615;28;20254;-48
2023/09/14 06:20:35;;;;;;;5.80;3.13;;;;;;;;;;5007258;28;20181;-48
2023/09/14 06:23:02;;;;;;;7.17;3.70;;;;;;;;;;4990298;28;20192;-48
2023/09/14 06:25:31;;;;;;;6.47;3.57;;;;;;;;;;5007547;28;20522;-49
2023/09/14 06:27:57;;;;;;;4.17;3.20;;;;;;;;;;5009007;28;20226;-48
2023/09/14 06:30:23;;;;;;;9.63;4.10;;;;;;;;;;5007449;28;20274;-47
2023/09/14 06:32:49;;;;;;;9.67;4.90;;;;;;;;;;4999912;28;20563;-49
2023/09/14 06:35:16;;;;;;;5.40;3.53;;;;;;;;;;5007781;28;20642;-49
2023/09/14 06:37:42;;;;;;;4.00;3.30;;;;;;;;;;4999232;28;20176;-48
2023/09/14 06:40:08;;;;;;;5.17;3.63;;;;;;;;;;4999721;28;20177;-49
2023/09/14 06:42:35;;;;;;;6.73;3.20;;;;;;;;;;5007569;28;20753;-48
2023/09/14 06:45:01;;;;;;;4.83;3.17;;;;;;;;;;5008156;28;20193;-49
2023/09/14 06:47:27;;;;;;;8.93;3.67;;;;;;;;;;5003656;28;20224;-48
2023/09/14 06:49:54;;;;;;;9.50;4.03;;;;;;;;;;5007289;28;20183;-49
2023/09/14 06:52:20;;;;;;;4.37;3.50;;;;;;;;;;5006242;28;20214;-49
2023/09/14 06:54:47;;;;;;;4.30;3.87;;;;;;;;;;4992143;28;20590;-49
2023/09/14 06:57:14;;;;;;;13.70;4.07;;;;;;;;;;5007427;28;20191;-48
2023/09/14 06:59:40;;;;;;;7.20;4.70;;;;;;;;;;4992074;28;20186;-49
2023/09/14 07:02:06;;;;;;;9.73;4.53;;;;;;;;;;5007933;28;20265;-49
2023/09/14 07:04:34;;;;;;;9.80;4.40;;;;;;;;;;5006353;28;20186;-49
2023/09/14 07:07:00;;;;;;;5.27;3.90;;;;;;;;;;5009245;28;20507;-49
2023/09/14 07:09:27;;;;;;;10.10;4.60;;;;;;;;;;5008035;28;20184;-48
2023/09/14 07:11:54;;;;;;;4.93;4.13;;;;;;;;;;5008305;28;20605;-49
2023/09/14 07:14:20;;;;;;;5.33;4.37;;;;;;;;;;4999314;28;20658;-49
2023/09/14 07:16:46;;;;;;;9.00;4.27;;;;;;;;;;5000907;28;20189;-49
2023/09/14 07:19:13;;;;;;;9.60;4.50;;;;;;;;;;5007375;28;20189;-49
2023/09/14 07:21:39;;;;;;;6.33;4.70;;;;;;;;;;5005926;28;20182;-48
2023/09/14 07:24:06;;;;;;;7.13;5.10;;;;;;;;;;5004813;28;20227;-48
2023/09/14 07:26:33;;;;;;;7.17;5.33;;;;;;;;;;4999819;28;20242;-48
2023/09/14 07:28:59;;;;;;;9.60;4.93;;;;;;;;;;5006961;28;20224;-48
2023/09/14 07:31:25;;;;;;;8.27;5.70;;;;;;;;;;5002159;28;20595;-49
2023/09/14 07:33:52;;;;;;;9.33;5.43;;;;;;;;;;5007349;28;20202;-49
2023/09/14 07:36:18;;;;;;;8.43;6.50;;;;;;;;;;5005747;28;20297;-49
2023/09/14 07:38:44;;;;;;;7.40;6.13;;;;;;;;;;4987740;28;20171;-48
2023/09/14 07:41:11;;;;;;;10.63;6.07;;;;;;;;;;5006228;28;20178;-48
2023/09/14 07:43:37;;;;;;;8.40;6.67;;;;;;;;;;5006605;28;20191;-48
2023/09/14 07:46:03;;;;;;;10.17;6.73;;;;;;;;;;5008495;28;20186;-48
2023/09/14 07:48:29;;;;;;;9.27;5.77;;;;;;;;;;5007601;28;20751;-48
2023/09/14 07:50:56;;;;;;;9.07;6.30;;;;;;;;;;5005103;28;20182;-48
2023/09/14 07:53:22;;;;;;;11.90;5.63;;;;;;;;;;5007628;28;20182;-49
2023/09/14 07:55:52;;;;;;;7.87;5.97;;;;;;;;;;5007703;28;20516;-48
2023/09/14 07:58:20;;;;;;;9.00;5.80;;;;;;;;;;5007803;28;20228;-49
2023/09/14 08:00:47;;;;;;;6.90;6.03;;;;;;;;;;5005279;28;20265;-49
2023/09/14 08:03:14;;;;;;;10.63;6.87;;;;;;;;;;5006663;28;20182;-48
2023/09/14 08:05:40;;;;;;;7.00;5.90;;;;;;;;;;4995504;28;20252;-49
2023/09/14 08:08:07;;;;;;;9.03;5.30;;;;;;;;;;5008012;28;20293;-49
2023/09/14 08:10:33;;;;;;;7.70;5.10;;;;;;;;;;5008133;28;20534;-49
2023/09/14 08:13:00;;;;;;;9.60;6.63;;;;;;;;;;5008724;28;20641;-49
2023/09/14 08:15:26;;;;;;;6.77;5.80;;;;;;;;;;5009311;28;20198;-48
2023/09/14 08:17:53;;;;;;;7.53;6.00;;;;;;;;;;5007085;28;20190;-50
2023/09/14 08:20:19;;;;;;;8.90;5.03;;;;;;;;;;5009097;28;20179;-50
2023/09/14 08:22:45;;;;;;;13.97;7.33;;;;;;;;;;4996156;28;20187;-49
2023/09/14 08:25:14;;;;;;;7.70;5.90;;;;;;;;;;5004763;28;20709;-51
2023/09/14 08:27:40;;;;;;;6.20;5.50;;;;;;;;;;5003688;28;20599;-50
2023/09/14 08:30:08;;;;;;;7.60;4.93;;;;;;;;;;5002724;28;20341;-51
2023/09/14 08:32:34;;;;;;;4.67;3.80;;;;;;;;;;4998049;28;20218;-50
2023/09/14 08:35:19;;;;;;;6.77;4.50;;;;;;;;;;5001343;28;20675;-50
2023/09/14 08:37:45;;;;;;;5.13;4.17;;;;;;;;;;5004041;28;20191;-51
2023/09/14 08:40:14;;;;;;;5.77;4.10;;;;;;;;;;5007518;28;20235;-49
2023/09/14 08:42:41;;;;;;;6.87;4.47;;;;;;;;;;5006338;28;20236;-51
2023/09/14 08:45:11;;;;;;;7.70;3.90;;;;;;;;;;5008925;28;20182;-50
2023/09/14 08:47:41;;;;;;;4.57;4.13;;;;;;;;;;5001621;28;20228;-51
2023/09/14 08:50:08;;;;;;;6.97;4.30;;;;;;;;;;5002921;28;20635;-51
2023/09/14 08:52:35;;;;;;;7.53;4.43;;;;;;;;;;5004939;28;20203;-51
2023/09/14 08:55:01;;;;;;;7.80;4.27;;;;;;;;;;4998731;28;20185;-51
2023/09/14 08:57:28;;;;;;;8.23;5.07;;;;;;;;;;5000309;28;20186;-52
2023/09/14 08:59:56;;;;;;;4.80;3.83;;;;;;;;;;5001573;28;20183;-51
2023/09/14 09:02:23;;;;;;;4.73;4.17;;;;;;;;;;5001703;28;20179;-52
2023/09/14 09:04:49;;;;;;;5.77;4.53;;;;;;;;;;5003860;28;20214;-50
2023/09/14 09:07:16;;;;;;;6.13;3.90;;;;;;;;;;5006285;28;20212;-51
2023/09/14 09:09:42;;;;;;;6.17;4.67;;;;;;;;;;4999038;28;20725;-52
2023/09/14 09:12:08;;;;;;;5.43;4.40;;;;;;;;;;5010680;28;20244;-51
2023/09/14 09:14:37;;;;;;;5.20;4.70;;;;;;;;;;5011267;28;20185;-51
2023/09/14 09:17:04;;;;;;;5.50;4.53;;;;;;;;;;4991123;28;20209;-51
2023/09/14 09:19:30;;;;;;;4.57;3.47;;;;;;;;;;5012628;28;20181;-50
2023/09/14 09:21:56;;;;;;;7.40;4.20;;;;;;;;;;5006883;28;20243;-50
2023/09/14 09:24:26;;;;;;;4.30;3.33;;;;;;;;;;5006261;28;20237;-51
2023/09/14 09:26:52;;;;;;;5.63;3.90;;;;;;;;;;5000430;28;20256;-51
2023/09/14 09:29:19;;;;;;;5.57;3.80;;;;;;;;;;5002589;28;20288;-51
2023/09/14 09:31:47;;;;;;;7.07;4.03;;;;;;;;;;5008337;28;20289;-51
2023/09/14 09:34:13;;;;;;;6.30;3.87;;;;;;;;;;5009178;28;20175;-51
2023/09/14 09:36:40;;;;;;;7.93;4.27;;;;;;;;;;5008742;28;20229;-50
2023/09/14 09:39:07;;;;;;;6.70;3.73;;;;;;;;;;5004313;28;20260;-50
2023/09/14 09:41:33;;;;;;;6.97;4.03;;;;;;;;;;4993793;28;20264;-50
2023/09/14 09:44:00;;;;;;;4.47;3.90;;;;;;;;;;5003946;28;20234;-50
2023/09/14 09:46:26;;;;;;;4.53;3.90;;;;;;;;;;4998634;28;20174;-50
2023/09/14 09:48:52;;;;;;;3.93;3.40;;;;;;;;;;5012045;28;20249;-50
2023/09/14 09:51:22;;;;;;;5.50;3.60;;;;;;;;;;5010808;28;20217;-49
2023/09/14 09:54:07;;;;;;;4.43;3.20;;;;;;;;;;5010030;28;20645;-49
2023/09/14 09:56:34;;;;;;;6.83;3.80;;;;;;;;;;5012365;28;20205;-51
2023/09/14 09:59:09;;;;;;;3.90;3.50;;;;;;;;;;5008977;28;20289;-50
2023/09/14 10:01:38;;;;;;;3.50;3.20;;;;;;;;;;5001511;28;20682;-51
2023/09/14 10:04:11;;;;;;;3.57;3.20;;;;;;;;;;5011457;28;20208;-54
2023/09/14 10:06:38;;;;;;;4.37;3.57;;;;;;;;;;5005361;28;20213;-51
2023/09/14 10:09:08;;;;;;;7.87;3.50;;;;;;;;;;5009810;28;20709;-50
2023/09/14 10:11:35;;;;;;;4.13;3.10;;;;;;;;;;5012029;28;20299;-50
2023/09/14 10:14:04;;;;;;;5.07;3.23;;;;;;;;;;5009497;28;20574;-50
2023/09/14 10:16:33;;;;;;;6.33;3.53;;;;;;;;;;5010016;28;20181;-50
2023/09/14 10:18:59;;;;;;;4.77;3.20;;;;;;;;;;5010528;28;20174;-51
2023/09/14 10:21:27;;;;;;;4.40;3.03;;;;;;;;;;5006555;28;20197;-50
2023/09/14 10:23:54;;;;;;;4.20;2.73;;;;;;;;;;5003536;28;20175;-50
2023/09/14 10:26:20;;;;;;;4.40;3.10;;;;;;;;;;5007125;28;20178;-51
2023/09/14 10:28:47;;;;;;;5.20;3.50;;;;;;;;;;5016318;28;20216;-50
2023/09/14 10:31:14;;;;;;;5.37;3.10;;;;;;;;;;5009015;28;20264;-49
2023/09/14 10:33:48;;;;;;;7.90;3.47;;;;;;;;;;5009023;28;20190;-51
2023/09/14 10:36:15;;;;;;;3.73;3.33;;;;;;;;;;5004024;28;20258;-51
2023/09/14 10:38:45;;;;;;;4.57;3.00;;;;;;;;;;5005896;28;20606;-50
2023/09/14 10:41:12;;;;;;;4.13;3.27;;;;;;;;;;5009803;28;20200;-46
2023/09/14 10:43:39;;;;;;;4.63;2.83;;;;;;;;;;5006462;28;20251;-47
2023/09/14 10:46:08;;;;;;;2.90;2.60;;;;;;;;;;5008183;28;20918;-46
2023/09/14 10:48:35;;;;;;;5.40;3.30;;;;;;;;;;5007694;28;20213;-47
2023/09/14 10:51:01;;;;;;;2.73;2.53;;;;;;;;;;5006350;28;20174;-47
2023/09/14 10:53:29;;;;;;;3.33;2.73;;;;;;;;;;5005580;28;20527;-46
2023/09/14 10:55:56;;;;;;;3.33;3.03;;;;;;;;;;5004788;28;20281;-47
2023/09/14 10:58:41;;;;;;;5.13;3.17;;;;;;;;;;5007024;28;20195;-47
2023/09/14 11:01:10;;;;;;;2.97;2.53;;;;;;;;;;5006229;28;20187;-46
2023/09/14 11:04:03;;;;;;;4.10;3.70;;;;;;;;;;5002510;28;20564;-47
2023/09/14 11:06:42;;;;;;;4.07;2.80;;;;;;;;;;4982945;28;20195;-47
2023/09/14 11:09:08;;;;;;;4.57;3.40;;;;;;;;;;5007915;28;20183;-47
2023/09/14 11:11:39;;;;;;;4.30;3.63;;;;;;;;;;5007012;28;20210;-47
2023/09/14 11:14:08;;;;;;;4.20;3.03;;;;;;;;;;5003817;28;20195;-47
2023/09/14 11:16:43;;;;;;;3.37;3.03;;;;;;;;;;5005133;28;20191;-47
2023/09/14 11:19:09;;;;;;;6.37;3.27;;;;;;;;;;5003883;28;20182;-47
2023/09/14 11:21:35;;;;;;;3.57;2.70;;;;;;;;;;5008787;28;20620;-46
2023/09/14 11:24:04;;;;;;;4.03;3.63;;;;;;;;;;5003586;28;20173;-46
2023/09/14 11:26:31;;;;;;;5.47;3.50;;;;;;;;;;5000610;28;20207;-48
2023/09/14 11:28:57;;;;;;;4.17;3.03;;;;;;;;;;5006637;28;20231;-47
2023/09/14 11:31:29;;;;;;;4.13;3.80;;;;;;;;;;5007247;28;20213;-46
2023/09/14 11:33:55;;;;;;;4.10;3.70;;;;;;;;;;5000214;28;20632;-48
2023/09/14 11:36:26;;;;;;;6.67;3.17;;;;;;;;;;4996715;28;20233;-46
2023/09/14 11:38:52;;;;;;;4.43;3.60;;;;;;;;;;5007454;28;20186;-46
2023/09/14 11:41:37;;;;;;;6.83;3.30;;;;;;;;;;5001209;28;20723;-46
2023/09/14 11:44:04;;;;;;;4.07;3.13;;;;;;;;;;4997262;28;20271;-48
2023/09/14 11:46:32;;;;;;;3.40;3.10;;;;;;;;;;5006797;28;20266;-46
2023/09/14 11:48:59;;;;;;;4.27;3.53;;;;;;;;;;5004938;28;20710;-48
2023/09/14 11:51:25;;;;;;;5.80;3.83;;;;;;;;;;5000953;28;20546;-47
2023/09/14 11:53:55;;;;;;;4.07;3.67;;;;;;;;;;5001382;28;20265;-48
2023/09/14 11:56:22;;;;;;;4.67;3.80;;;;;;;;;;5007201;28;20191;-47
2023/09/14 11:58:48;;;;;;;4.83;4.10;;;;;;;;;;5007965;28;20638;-47
2023/09/14 12:01:14;;;;;;;6.00;5.30;;;;;;;;;;5008274;28;20207;-48
2023/09/14 12:03:40;;;;;;;5.53;4.30;;;;;;;;;;5003630;28;20183;-48
2023/09/14 12:06:06;;;;;;;5.67;4.20;;;;;;;;;;5007624;28;20506;-47
2023/09/14 12:08:33;;;;;;;4.50;4.10;;;;;;;;;;5006633;28;20176;-48
2023/09/14 12:10:59;;;;;;;4.53;3.60;;;;;;;;;;4988439;28;20257;-47
2023/09/14 12:13:26;;;;;;;4.07;3.77;;;;;;;;;;5006022;28;20323;-46
2023/09/14 12:15:59;;;;;;;4.87;3.90;;;;;;;;;;5006473;28;20284;-47
2023/09/14 12:18:46;;;;;;;4.43;4.13;;;;;;;;;;5006664;28;20280;-48
2023/09/14 12:21:12;;;;;;;5.13;4.63;;;;;;;;;;5006432;28;20783;-47
2023/09/14 12:23:39;;;;;;;4.87;4.47;;;;;;;;;;5003079;28;20185;-48
2023/09/14 12:26:06;;;;;;;4.60;4.20;;;;;;;;;;5004938;28;20177;-49
2023/09/14 12:28:33;;;;;;;4.60;4.20;;;;;;;;;;5006921;28;20248;-50
2023/09/14 12:30:59;;;;;;;6.37;4.50;;;;;;;;;;5006617;28;20212;-49
2023/09/14 12:33:26;;;;;;;4.60;4.20;;;;;;;;;;5004243;28;20219;-47
2023/09/14 12:35:52;;;;;;;4.60;4.10;;;;;;;;;;5004693;28;20197;-48
2023/09/14 12:38:19;;;;;;;4.67;4.27;;;;;;;;;;5004635;28;20190;-48
2023/09/14 12:40:46;;;;;;;4.50;4.10;;;;;;;;;;5006059;28;20278;-49
2023/09/14 12:43:13;;;;;;;5.03;4.33;;;;;;;;;;4986803;28;20537;-48
2023/09/14 12:45:40;;;;;;;4.57;4.20;;;;;;;;;;5006516;28;20187;-49
2023/09/14 12:48:09;;;;;;;4.27;3.97;;;;;;;;;;5006973;28;20174;-48
2023/09/14 12:50:36;;;;;;;4.50;4.10;;;;;;;;;;5004430;28;20478;-49
2023/09/14 12:53:13;;;;;;;5.10;4.60;;;;;;;;;;5003391;28;20213;-49
2023/09/14 12:55:46;;;;;;;4.90;4.50;;;;;;;;;;5007232;28;20692;-49
2023/09/14 12:58:13;;;;;;;4.43;4.03;;;;;;;;;;5003560;28;20748;-50
2023/09/14 13:00:39;;;;;;;4.87;4.33;;;;;;;;;;4996937;28;20179;-48
2023/09/14 13:03:09;;;;;;;4.97;4.27;;;;;;;;;;5003331;28;20226;-48
2023/09/14 13:05:35;;;;;;;4.77;4.30;;;;;;;;;;5001615;28;20653;-50
2023/09/14 13:08:03;;;;;;;5.23;4.73;;;;;;;;;;5003575;28;20273;-50
2023/09/14 13:10:30;;;;;;;5.57;4.50;;;;;;;;;;5006305;28;20187;-49
2023/09/14 13:13:08;;;;;;;4.80;4.40;;;;;;;;;;5007127;28;20206;-49
2023/09/14 13:15:35;;;;;;;5.77;5.20;;;;;;;;;;5006150;28;20174;-49
2023/09/14 13:18:05;;;;;;;4.33;3.97;;;;;;;;;;5007057;28;20194;-49
2023/09/14 13:20:38;;;;;;;4.87;4.40;;;;;;;;;;5002555;28;20174;-47
2023/09/14 13:23:05;;;;;;;5.77;4.60;;;;;;;;;;5005025;28;20615;-49
2023/09/14 13:25:32;;;;;;;4.23;3.83;;;;;;;;;;5006525;28;20185;-48
2023/09/14 13:27:59;;;;;;;5.43;4.53;;;;;;;;;;5005418;28;20245;-50
2023/09/14 13:30:25;;;;;;;5.07;4.27;;;;;;;;;;5003865;28;20206;-48
2023/09/14 13:32:55;;;;;;;6.00;3.77;;;;;;;;;;5002635;28;20217;-51
2023/09/14 13:35:22;;;;;;;5.80;3.83;;;;;;;;;;5002359;28;20689;-50
2023/09/14 13:37:57;;;;;;;4.40;4.00;;;;;;;;;;5001909;28;20179;-51
2023/09/14 13:40:24;;;;;;;4.07;3.70;;;;;;;;;;5003177;28;20228;-47
2023/09/14 13:42:57;;;;;;;5.83;4.00;;;;;;;;;;5000091;28;20194;-50
2023/09/14 13:45:23;;;;;;;5.00;4.23;;;;;;;;;;5006700;28;20186;-48
2023/09/14 13:47:51;;;;;;;5.63;4.10;;;;;;;;;;5002106;28;20189;-49
2023/09/14 13:50:17;;;;;;;9.67;4.93;;;;;;;;;;5007250;28;20279;-47
2023/09/14 13:52:44;;;;;;;5.53;4.50;;;;;;;;;;5004380;28;20229;-47
2023/09/14 13:55:10;;;;;;;4.40;3.87;;;;;;;;;;5005644;28;20289;-47
2023/09/14 13:57:37;;;;;;;6.13;5.63;;;;;;;;;;5007231;28;20183;-48
2023/09/14 14:00:07;;;;;;;7.07;5.23;;;;;;;;;;5006298;28;20631;-48
2023/09/14 14:02:34;;;;;;;4.83;4.30;;;;;;;;;;5006976;28;20187;-48
2023/09/14 14:05:00;;;;;;;4.80;4.47;;;;;;;;;;5010774;28;20266;-48
2023/09/14 14:07:28;;;;;;;4.43;4.03;;;;;;;;;;5006583;28;20593;-52
2023/09/14 14:09:54;;;;;;;5.23;4.73;;;;;;;;;;5009367;28;20186;-48
2023/09/14 14:12:20;;;;;;;5.53;4.97;;;;;;;;;;5009184;28;20212;-49
2023/09/14 14:14:47;;;;;;;5.10;4.67;;;;;;;;;;5006068;28;20655;-48
2023/09/14 14:17:13;;;;;;;5.03;4.63;;;;;;;;;;5007092;28;20206;-45
2023/09/14 14:19:39;;;;;;;6.30;4.83;;;;;;;;;;5007031;28;20179;-46
2023/09/14 14:22:06;;;;;;;5.37;4.87;;;;;;;;;;5008408;28;20675;-48
2023/09/14 14:24:32;;;;;;;12.47;5.60;;;;;;;;;;4991414;28;20646;-49
2023/09/14 14:26:58;;;;;;;5.40;5.00;;;;;;;;;;5007707;28;20639;-48
2023/09/14 14:29:24;;;;;;;5.17;4.60;;;;;;;;;;5009702;28;20253;-46
2023/09/14 14:31:50;;;;;;;4.97;4.50;;;;;;;;;;5009288;28;20225;-49
2023/09/14 14:34:17;;;;;;;5.43;4.93;;;;;;;;;;5013409;28;20267;-46
2023/09/14 14:36:44;;;;;;;5.90;4.47;;;;;;;;;;5008889;28;20191;-49
2023/09/14 14:39:10;;;;;;;4.90;4.50;;;;;;;;;;5008019;28;20182;-49
2023/09/14 14:41:37;;;;;;;5.60;5.10;;;;;;;;;;5009422;28;20195;-48
2023/09/14 14:44:03;;;;;;;5.43;4.93;;;;;;;;;;5007389;28;20188;-48